createdAt,value
2023-03-23T15:59:42.949Z,99894.34
2023-03-23T16:01:44.509Z,99887.91
2023-03-23T16:03:50.924Z,99887.06
2023-03-23T16:05:52.496Z,99882.44
2023-03-23T16:07:54.610Z,99889.50
2023-03-23T16:09:56.290Z,99885.19
2023-03-23T16:11:57.855Z,99884.88
2023-03-23T16:14:00.053Z,99884.53
2023-03-23T16:16:01.678Z,99881.97
2023-03-23T16:18:03.571Z,99877.81
2023-03-23T16:20:13.409Z,99881.78
2023-03-23T16:22:16.590Z,99875.69
2023-03-23T16:24:18.958Z,99878.53
2023-03-23T16:26:20.690Z,99875.34
2023-03-23T16:28:22.235Z,99873.16
2023-03-23T16:30:26.487Z,99863.28
2023-03-23T16:32:28.096Z,99866.63
2023-03-23T16:34:29.747Z,99873.34
2023-03-23T16:36:32.776Z,99861.06
2023-03-23T16:38:34.481Z,99863.44
2023-03-23T16:40:51.853Z,99862.50
2023-03-23T16:42:54.030Z,99871.56
2023-03-23T16:44:56.711Z,99868.84
2023-03-23T16:46:58.374Z,99866.84
2023-03-23T16:48:59.986Z,99869.44
2023-03-23T16:51:01.696Z,99862.44
2023-03-23T16:53:05.955Z,99859.88
2023-03-23T16:55:08.932Z,99861.31
2023-03-23T16:57:10.756Z,99863.06
2023-03-23T16:59:13.951Z,99864.66
2023-03-23T17:01:15.492Z,99862.06
2023-03-23T17:03:18.234Z,99862.19
2023-03-23T17:05:20.951Z,99858.16
2023-03-23T17:07:22.504Z,99856.72
2023-03-23T17:09:26.028Z,99857.97
2023-03-23T17:11:27.673Z,99855.13
2023-03-23T17:13:29.376Z,99850.34
2023-03-23T17:15:31.146Z,99853.53
2023-03-23T17:17:32.799Z,99853.72
2023-03-23T17:19:34.435Z,99846.53
2023-03-23T17:21:36.025Z,99845.75
2023-03-23T17:23:37.739Z,99853.91
2023-03-23T17:25:40.936Z,99852.31
2023-03-23T17:27:42.670Z,99845.88
2023-03-23T17:29:44.289Z,99852.56
2023-03-23T17:31:45.859Z,99843.91
2023-03-23T17:33:47.586Z,99846.84
2023-03-23T17:35:49.287Z,99839.47
2023-03-23T17:37:50.952Z,99848.91
2023-03-23T17:39:52.564Z,99850.03
2023-03-23T17:41:59.176Z,99850.34
2023-03-23T17:44:00.825Z,99843.16
2023-03-23T17:46:02.472Z,99843.50
2023-03-23T17:48:04.452Z,99849.06
2023-03-23T17:50:11.226Z,99848.91
2023-03-23T17:52:14.510Z,99839.75
2023-03-23T17:54:16.113Z,99846.78
2023-03-23T17:56:17.861Z,99843.59
2023-03-23T17:58:20.846Z,99841.06
2023-03-23T18:00:22.442Z,99843.47
2023-03-23T18:02:24.000Z,99846.31
2023-03-23T18:04:26.033Z,99845.97
2023-03-23T18:06:27.653Z,99836.69
2023-03-23T18:08:29.772Z,99832.84
2023-03-23T18:10:31.419Z,99835.22
2023-03-23T18:12:33.226Z,99841.13
2023-03-23T18:14:36.300Z,99846.22
2023-03-23T18:16:38.167Z,99849.81
2023-03-23T18:18:39.940Z,99846.84
2023-03-23T18:20:41.494Z,99839.59
2023-03-23T18:22:43.200Z,99841.69
2023-03-23T18:24:44.935Z,99838.25
2023-03-23T18:26:46.769Z,99836.41
2023-03-23T18:28:49.907Z,99840.56
2023-03-23T18:30:53.046Z,99838.94
2023-03-23T18:32:54.690Z,99838.81
2023-03-23T18:34:58.800Z,99824.75
2023-03-23T18:37:00.534Z,99811.31
2023-03-23T18:39:03.906Z,99818.16
2023-03-23T18:41:07.152Z,99815.91
2023-03-23T18:43:08.847Z,99811.75
2023-03-23T18:45:11.010Z,99813.34
2023-03-23T18:47:14.211Z,99821.03
2023-03-23T18:49:15.798Z,99824.06
2023-03-23T18:51:17.316Z,99818.13
2023-03-23T18:53:19.910Z,99828.31
2023-03-23T18:55:22.167Z,99820.53
2023-03-23T18:57:23.906Z,99830.72
2023-03-23T18:59:25.455Z,99830.09
2023-03-23T19:01:27.115Z,99831.09
2023-03-23T19:03:30.132Z,99834.28
2023-03-23T19:05:32.448Z,99836.88
2023-03-23T19:07:37.072Z,99839.38
2023-03-23T19:09:38.664Z,99831.91
2023-03-23T19:11:40.249Z,99835.16
2023-03-23T19:13:53.788Z,99830.50
2023-03-23T19:16:00.901Z,99826.41
2023-03-23T19:18:02.552Z,99826.94
2023-03-23T19:20:07.546Z,99817.88
2023-03-23T19:22:09.090Z,99824.53
2023-03-23T19:24:11.404Z,99820.88
2023-03-23T19:26:21.931Z,99820.88
2023-03-23T19:29:03.763Z,99822.34
2023-03-23T19:30:47.115Z,99823.25
2023-03-23T19:32:48.817Z,99824.31
2023-03-23T19:34:51.241Z,99815.69
2023-03-23T19:37:03.188Z,99818.41
2023-03-23T19:39:07.815Z,99818.25
2023-03-23T19:41:10.680Z,99811.53
2023-03-23T19:43:12.231Z,99807.53
2023-03-23T19:45:16.796Z,99809.44
2023-03-23T19:47:18.421Z,99814.69
2023-03-23T19:49:20.397Z,99803.69
2023-03-23T19:51:22.741Z,99802.41
2023-03-23T19:53:27.759Z,99802.28
2023-03-23T19:55:29.462Z,99803.41
2023-03-23T19:57:31.168Z,99802.91
2023-03-23T19:59:32.747Z,99799.75
2023-03-23T20:01:34.320Z,99802.00
2023-03-23T20:03:36.229Z,99803.13
2023-03-23T20:05:37.983Z,99803.13
2023-03-23T20:07:41.629Z,99800.75
2023-03-23T20:09:48.409Z,99794.34
2023-03-23T20:11:50.391Z,99789.34
2023-03-23T20:13:52.081Z,99786.19
2023-03-23T20:15:53.685Z,99781.88
2023-03-23T20:17:58.307Z,99783.31
2023-03-23T20:20:00.079Z,99781.41
2023-03-23T20:22:01.768Z,99778.81
2023-03-23T20:24:03.455Z,99773.06
2023-03-23T20:26:10.014Z,99778.97
2023-03-23T20:28:11.611Z,99783.75
2023-03-23T20:30:13.587Z,99781.03
2023-03-23T20:32:15.127Z,99780.53
2023-03-23T20:34:17.311Z,99780.25
2023-03-23T20:36:18.896Z,99780.25
2023-03-23T20:38:20.556Z,99775.25
2023-03-23T20:40:22.167Z,99780.25
2023-03-23T20:42:25.056Z,99773.66
2023-03-23T20:44:26.718Z,99770.03
2023-03-23T20:46:28.876Z,99765.38
2023-03-23T20:48:32.491Z,99766.81
2023-03-23T20:50:34.064Z,99762.16
2023-03-23T20:52:36.072Z,99771.91
2023-03-23T20:54:38.229Z,99769.06
2023-03-23T20:56:39.878Z,99767.47
2023-03-23T20:58:43.006Z,99766.81
2023-03-23T21:00:45.734Z,99770.31
2023-03-23T21:02:47.404Z,99768.72
2023-03-23T21:04:49.784Z,99759.56
2023-03-23T21:06:51.333Z,99760.19
2023-03-23T21:08:52.941Z,99754.75
2023-03-23T21:10:55.855Z,99764.50
2023-03-23T21:12:57.402Z,99751.38
2023-03-23T21:15:00.652Z,99753.75
2023-03-23T21:17:02.932Z,99755.69
2023-03-23T21:19:09.127Z,99750.59
2023-03-23T21:21:11.688Z,99747.41
2023-03-23T21:23:13.309Z,99745.81
2023-03-23T21:25:15.115Z,99745.69
2023-03-23T21:27:17.244Z,99742.00
2023-03-23T21:29:19.884Z,99736.69
2023-03-23T21:31:22.816Z,99732.03
2023-03-23T21:33:24.419Z,99733.31
2023-03-23T21:35:26.240Z,99731.38
2023-03-23T21:37:27.926Z,99731.72
2023-03-23T21:39:29.488Z,99740.06
2023-03-23T21:41:31.089Z,99732.59
2023-03-23T21:43:44.193Z,99733.38
2023-03-23T21:45:46.014Z,99729.88
2023-03-23T21:47:49.054Z,99718.41
2023-03-23T21:49:50.630Z,99723.38
2023-03-23T21:51:52.194Z,99716.00
2023-03-23T21:53:55.456Z,99722.69
2023-03-23T21:55:56.981Z,99721.56
2023-03-23T21:57:58.557Z,99717.72
2023-03-23T22:00:00.582Z,99719.66
2023-03-23T22:02:02.317Z,99715.94
2023-03-23T22:04:05.688Z,99704.63
2023-03-23T22:06:11.645Z,99712.28
2023-03-23T22:08:13.220Z,99716.59
2023-03-23T22:10:15.181Z,99708.47
2023-03-23T22:12:17.410Z,99709.09
2023-03-23T22:14:18.984Z,99694.41
2023-03-23T22:16:21.545Z,99682.44
2023-03-23T22:18:23.183Z,99683.72
2023-03-23T22:20:26.626Z,99681.44
2023-03-23T22:22:28.188Z,99685.44
2023-03-23T22:24:30.055Z,99682.25
2023-03-23T22:26:31.842Z,99686.69
2023-03-23T22:28:34.069Z,99677.06
2023-03-23T22:30:35.919Z,99678.31
2023-03-23T22:32:37.558Z,99676.28
2023-03-23T22:34:39.195Z,99671.63
2023-03-23T22:36:42.662Z,99669.91
2023-03-23T22:38:46.042Z,99669.13
2023-03-23T22:40:54.743Z,99674.56
2023-03-23T22:42:57.162Z,99663.53
2023-03-23T22:44:58.899Z,99662.75
2023-03-23T22:47:00.587Z,99657.81
2023-03-23T22:49:02.369Z,99657.00
2023-03-23T22:51:04.355Z,99668.84
2023-03-23T22:53:07.370Z,99673.97
2023-03-23T22:55:09.980Z,99661.97
2023-03-23T22:57:11.715Z,99661.03
2023-03-23T22:59:13.414Z,99662.94
2023-03-23T23:01:17.370Z,99670.44
2023-03-23T23:03:18.966Z,99670.44
2023-03-23T23:05:20.617Z,99673.38
2023-03-23T23:07:22.259Z,99665.06
2023-03-23T23:09:25.232Z,99657.59
2023-03-23T23:11:27.235Z,99655.88
2023-03-23T23:13:31.224Z,99651.22
2023-03-23T23:15:42.354Z,99638.00
2023-03-23T23:17:44.011Z,99648.03
2023-03-23T23:19:45.681Z,99646.28
2023-03-23T23:21:47.228Z,99647.88
2023-03-23T23:23:49.177Z,99655.19
2023-03-23T23:25:52.638Z,99657.00
2023-03-23T23:27:54.507Z,99642.84
2023-03-23T23:29:56.185Z,99645.41
2023-03-23T23:31:57.931Z,99638.41
2023-03-23T23:34:01.287Z,99639.03
2023-03-23T23:36:03.067Z,99629.78
2023-03-23T23:38:05.340Z,99637.44
2023-03-23T23:40:08.089Z,99629.66
2023-03-23T23:42:11.197Z,99624.56
2023-03-23T23:44:12.955Z,99626.47
2023-03-23T23:46:14.679Z,99617.13
2023-03-23T23:48:16.517Z,99613.88
2023-03-23T23:50:18.652Z,99616.47
2023-03-23T23:52:20.193Z,99610.13
2023-03-23T23:54:21.833Z,99603.41
2023-03-23T23:56:23.609Z,99602.50
2023-03-23T23:58:26.766Z,99596.94
